sensor_id;sensor_type;location;lat;lon;timestamp;temperature;humidity
54832;DHT22;40730;53.068;6.572;2023-07-22T00:02:18;12.00;99.90
54832;DHT22;40730;53.068;6.572;2023-07-22T00:04:43;12.10;99.90
54832;DHT22;40730;53.068;6.572;2023-07-22T00:07:09;12.00;99.90
54832;DHT22;40730;53.068;6.572;2023-07-22T00:09:35;12.10;99.90
54832;DHT22;40730;53.068;6.572;2023-07-22T00:12:01;12.10;99.90
54832;DHT22;40730;53.068;6.572;2023-07-22T00:14:26;12.10;99.90
54832;DHT22;40730;53.068;6.572;2023-07-22T00:16:52;12.00;99.90
54832;DHT22;40730;53.068;6.572;2023-07-22T00:19:17;12.00;99.90
54832;DHT22;40730;53.068;6.572;2023-07-22T00:21:43;12.00;99.90
54832;DHT22;40730;53.068;6.572;2023-07-22T00:24:09;12.00;99.90
54832;DHT22;40730;53.068;6.572;2023-07-22T00:26:36;12.00;99.90
54832;DHT22;40730;53.068;6.572;2023-07-22T00:29:01;11.90;99.90
54832;DHT22;40730;53.068;6.572;2023-07-22T00:31:28;11.90;99.90
54832;DHT22;40730;53.068;6.572;2023-07-22T00:33:53;11.80;99.90
54832;DHT22;40730;53.068;6.572;2023-07-22T00:36:19;11.80;99.90
54832;DHT22;40730;53.068;6.572;2023-07-22T00:38:44;11.80;99.90
54832;DHT22;40730;53.068;6.572;2023-07-22T00:41:10;11.70;99.90
54832;DHT22;40730;53.068;6.572;2023-07-22T00:43:36;11.70;99.90
54832;DHT22;40730;53.068;6.572;2023-07-22T00:46:04;11.70;99.90
54832;DHT22;40730;53.068;6.572;2023-07-22T00:48:30;11.70;99.90
54832;DHT22;40730;53.068;6.572;2023-07-22T00:50:56;11.60;99.90
54832;DHT22;40730;53.068;6.572;2023-07-22T00:53:22;11.70;99.90
54832;DHT22;40730;53.068;6.572;2023-07-22T00:55:48;11.60;99.90
54832;DHT22;40730;53.068;6.572;2023-07-22T00:58:13;11.60;99.90
54832;DHT22;40730;53.068;6.572;2023-07-22T01:00:39;11.60;99.90
54832;DHT22;40730;53.068;6.572;2023-07-22T01:03:05;11.60;99.90
54832;DHT22;40730;53.068;6.572;2023-07-22T01:05:32;11.60;99.90
54832;DHT22;40730;53.068;6.572;2023-07-22T01:07:59;11.60;99.90
54832;DHT22;40730;53.068;6.572;2023-07-22T01:10:25;11.50;99.90
54832;DHT22;40730;53.068;6.572;2023-07-22T01:12:50;11.50;99.90
54832;DHT22;40730;53.068;6.572;2023-07-22T01:15:16;11.40;99.90
54832;DHT22;40730;53.068;6.572;2023-07-22T01:17:42;11.40;99.90
54832;DHT22;40730;53.068;6.572;2023-07-22T01:20:08;11.40;99.90
54832;DHT22;40730;53.068;6.572;2023-07-22T01:22:36;11.40;99.90
54832;DHT22;40730;53.068;6.572;2023-07-22T01:25:02;11.40;99.90
54832;DHT22;40730;53.068;6.572;2023-07-22T01:27:28;11.40;99.90
54832;DHT22;40730;53.068;6.572;2023-07-22T01:29:55;11.50;99.90
54832;DHT22;40730;53.068;6.572;2023-07-22T01:32:20;11.40;99.90
54832;DHT22;40730;53.068;6.572;2023-07-22T01:34:46;11.40;99.90
54832;DHT22;40730;53.068;6.572;2023-07-22T01:37:12;11.40;99.90
54832;DHT22;40730;53.068;6.572;2023-07-22T01:39:38;11.30;99.90
54832;DHT22;40730;53.068;6.572;2023-07-22T01:42:03;11.30;99.90
54832;DHT22;40730;53.068;6.572;2023-07-22T01:44:30;11.30;99.90
54832;DHT22;40730;53.068;6.572;2023-07-22T01:46:55;11.30;99.90
54832;DHT22;40730;53.068;6.572;2023-07-22T01:49:21;11.30;99.90
54832;DHT22;40730;53.068;6.572;2023-07-22T01:51:49;11.30;99.90
54832;DHT22;40730;53.068;6.572;2023-07-22T01:54:15;11.30;99.90
54832;DHT22;40730;53.068;6.572;2023-07-22T01:56:41;11.10;99.90
54832;DHT22;40730;53.068;6.572;2023-07-22T01:59:06;11.30;99.90
54832;DHT22;40730;53.068;6.572;2023-07-22T02:01:32;11.30;99.90
54832;DHT22;40730;53.068;6.572;2023-07-22T02:03:58;11.20;99.90
54832;DHT22;40730;53.068;6.572;2023-07-22T02:06:24;11.20;99.90
54832;DHT22;40730;53.068;6.572;2023-07-22T02:08:49;11.20;99.90
54832;DHT22;40730;53.068;6.572;2023-07-22T02:11:15;11.20;99.90
54832;DHT22;40730;53.068;6.572;2023-07-22T02:13:41;11.10;99.90
54832;DHT22;40730;53.068;6.572;2023-07-22T02:16:07;11.10;99.90
54832;DHT22;40730;53.068;6.572;2023-07-22T02:18:32;11.00;99.90
54832;DHT22;40730;53.068;6.572;2023-07-22T02:20:58;11.00;99.90
54832;DHT22;40730;53.068;6.572;2023-07-22T02:23:24;10.90;99.90
54832;DHT22;40730;53.068;6.572;2023-07-22T02:25:53;10.80;99.90
54832;DHT22;40730;53.068;6.572;2023-07-22T02:28:20;10.80;99.90
54832;DHT22;40730;53.068;6.572;2023-07-22T02:30:51;10.70;99.90
54832;DHT22;40730;53.068;6.572;2023-07-22T02:33:18;10.60;99.90
54832;DHT22;40730;53.068;6.572;2023-07-22T02:35:44;10.60;99.90
54832;DHT22;40730;53.068;6.572;2023-07-22T02:38:09;10.50;99.90
54832;DHT22;40730;53.068;6.572;2023-07-22T02:40:36;10.40;99.90
54832;DHT22;40730;53.068;6.572;2023-07-22T02:43:02;10.30;99.90
54832;DHT22;40730;53.068;6.572;2023-07-22T02:45:28;10.30;99.90
54832;DHT22;40730;53.068;6.572;2023-07-22T02:47:54;10.30;99.90
54832;DHT22;40730;53.068;6.572;2023-07-22T02:50:19;10.90;99.90
54832;DHT22;40730;53.068;6.572;2023-07-22T02:52:45;10.50;99.90
54832;DHT22;40730;53.068;6.572;2023-07-22T02:55:16;10.60;99.90
54832;DHT22;40730;53.068;6.572;2023-07-22T02:57:45;10.70;99.90
54832;DHT22;40730;53.068;6.572;2023-07-22T03:00:15;10.70;99.90
54832;DHT22;40730;53.068;6.572;2023-07-22T03:02:51;10.70;99.90
54832;DHT22;40730;53.068;6.572;2023-07-22T03:05:26;10.70;99.90
54832;DHT22;40730;53.068;6.572;2023-07-22T03:07:53;10.70;99.90
54832;DHT22;40730;53.068;6.572;2023-07-22T03:10:19;10.70;99.90
54832;DHT22;40730;53.068;6.572;2023-07-22T03:12:44;10.80;99.90
54832;DHT22;40730;53.068;6.572;2023-07-22T03:15:10;10.80;99.90
54832;DHT22;40730;53.068;6.572;2023-07-22T03:17:39;10.80;99.90
54832;DHT22;40730;53.068;6.572;2023-07-22T03:20:07;10.80;99.90
54832;DHT22;40730;53.068;6.572;2023-07-22T03:22:43;10.70;99.90
54832;DHT22;40730;53.068;6.572;2023-07-22T03:25:10;10.70;99.90
54832;DHT22;40730;53.068;6.572;2023-07-22T03:27:36;10.70;99.90
54832;DHT22;40730;53.068;6.572;2023-07-22T03:30:06;10.80;99.90
54832;DHT22;40730;53.068;6.572;2023-07-22T03:32:33;10.80;99.90
54832;DHT22;40730;53.068;6.572;2023-07-22T03:34:59;10.80;99.90
54832;DHT22;40730;53.068;6.572;2023-07-22T03:37:25;10.90;99.90
54832;DHT22;40730;53.068;6.572;2023-07-22T03:39:50;10.90;99.90
54832;DHT22;40730;53.068;6.572;2023-07-22T03:42:16;10.90;99.90
54832;DHT22;40730;53.068;6.572;2023-07-22T03:44:42;11.00;99.90
54832;DHT22;40730;53.068;6.572;2023-07-22T03:47:07;11.00;99.90
54832;DHT22;40730;53.068;6.572;2023-07-22T03:49:33;11.00;99.90
54832;DHT22;40730;53.068;6.572;2023-07-22T03:51:58;11.10;99.90
54832;DHT22;40730;53.068;6.572;2023-07-22T03:54:24;11.10;99.90
54832;DHT22;40730;53.068;6.572;2023-07-22T03:56:50;11.10;99.90
54832;DHT22;40730;53.068;6.572;2023-07-22T03:59:15;11.20;99.90
54832;DHT22;40730;53.068;6.572;2023-07-22T04:01:41;11.20;99.90
54832;DHT22;40730;53.068;6.572;2023-07-22T04:04:06;11.30;99.90
54832;DHT22;40730;53.068;6.572;2023-07-22T04:06:32;11.40;99.90
54832;DHT22;40730;53.068;6.572;2023-07-22T04:08:58;11.40;99.90
54832;DHT22;40730;53.068;6.572;2023-07-22T04:11:26;11.50;99.90
54832;DHT22;40730;53.068;6.572;2023-07-22T04:13:51;11.60;99.90
54832;DHT22;40730;53.068;6.572;2023-07-22T04:16:17;11.60;99.90
54832;DHT22;40730;53.068;6.572;2023-07-22T04:18:43;11.70;99.90
54832;DHT22;40730;53.068;6.572;2023-07-22T04:21:08;11.70;99.90
54832;DHT22;40730;53.068;6.572;2023-07-22T04:23:34;11.70;99.90
54832;DHT22;40730;53.068;6.572;2023-07-22T04:26:02;11.80;99.90
54832;DHT22;40730;53.068;6.572;2023-07-22T04:28:30;11.90;99.90
54832;DHT22;40730;53.068;6.572;2023-07-22T04:30:59;11.90;99.90
54832;DHT22;40730;53.068;6.572;2023-07-22T04:33:26;11.90;99.90
54832;DHT22;40730;53.068;6.572;2023-07-22T04:35:55;11.90;99.90
54832;DHT22;40730;53.068;6.572;2023-07-22T04:38:21;11.90;99.90
54832;DHT22;40730;53.068;6.572;2023-07-22T04:40:46;12.00;99.90
54832;DHT22;40730;53.068;6.572;2023-07-22T04:43:12;12.00;99.90
54832;DHT22;40730;53.068;6.572;2023-07-22T04:45:37;12.10;99.90
54832;DHT22;40730;53.068;6.572;2023-07-22T04:48:06;12.10;99.90
54832;DHT22;40730;53.068;6.572;2023-07-22T04:50:32;12.10;99.90
54832;DHT22;40730;53.068;6.572;2023-07-22T04:52:58;12.10;99.90
54832;DHT22;40730;53.068;6.572;2023-07-22T04:55:23;12.20;99.90
54832;DHT22;40730;53.068;6.572;2023-07-22T04:57:49;12.20;99.90
54832;DHT22;40730;53.068;6.572;2023-07-22T05:00:16;12.20;99.90
54832;DHT22;40730;53.068;6.572;2023-07-22T05:02:45;12.30;99.90
54832;DHT22;40730;53.068;6.572;2023-07-22T05:05:14;12.30;99.90
54832;DHT22;40730;53.068;6.572;2023-07-22T05:07:40;12.30;99.90
54832;DHT22;40730;53.068;6.572;2023-07-22T05:10:07;12.40;99.90
54832;DHT22;40730;53.068;6.572;2023-07-22T05:12:37;12.40;99.90
54832;DHT22;40730;53.068;6.572;2023-07-22T05:15:04;12.50;99.90
54832;DHT22;40730;53.068;6.572;2023-07-22T05:17:29;12.50;99.90
54832;DHT22;40730;53.068;6.572;2023-07-22T05:19:57;12.60;99.90
54832;DHT22;40730;53.068;6.572;2023-07-22T05:22:22;12.60;99.90
54832;DHT22;40730;53.068;6.572;2023-07-22T05:24:48;12.70;99.90
54832;DHT22;40730;53.068;6.572;2023-07-22T05:27:14;12.70;99.90
54832;DHT22;40730;53.068;6.572;2023-07-22T05:29:40;12.80;99.90
54832;DHT22;40730;53.068;6.572;2023-07-22T05:32:06;12.80;99.90
54832;DHT22;40730;53.068;6.572;2023-07-22T05:34:32;13.00;99.90
54832;DHT22;40730;53.068;6.572;2023-07-22T05:36:57;13.10;99.90
54832;DHT22;40730;53.068;6.572;2023-07-22T05:39:23;13.20;99.90
54832;DHT22;40730;53.068;6.572;2023-07-22T05:41:49;13.30;99.90
54832;DHT22;40730;53.068;6.572;2023-07-22T05:44:14;13.40;99.90
54832;DHT22;40730;53.068;6.572;2023-07-22T05:46:40;13.40;99.90
54832;DHT22;40730;53.068;6.572;2023-07-22T05:49:05;13.50;99.90
54832;DHT22;40730;53.068;6.572;2023-07-22T05:51:31;13.50;99.90
54832;DHT22;40730;53.068;6.572;2023-07-22T05:53:57;13.70;99.90
54832;DHT22;40730;53.068;6.572;2023-07-22T05:56:23;13.80;99.90
54832;DHT22;40730;53.068;6.572;2023-07-22T05:58:48;13.90;99.90
54832;DHT22;40730;53.068;6.572;2023-07-22T06:01:14;14.00;99.90
54832;DHT22;40730;53.068;6.572;2023-07-22T06:03:40;14.10;99.90
54832;DHT22;40730;53.068;6.572;2023-07-22T06:06:06;14.20;99.90
54832;DHT22;40730;53.068;6.572;2023-07-22T06:08:32;14.30;99.90
54832;DHT22;40730;53.068;6.572;2023-07-22T06:10:57;14.30;99.90
54832;DHT22;40730;53.068;6.572;2023-07-22T06:13:23;14.40;99.90
54832;DHT22;40730;53.068;6.572;2023-07-22T06:15:49;14.40;99.90
54832;DHT22;40730;53.068;6.572;2023-07-22T06:18:14;14.50;99.90
54832;DHT22;40730;53.068;6.572;2023-07-22T06:20:40;14.50;99.90
54832;DHT22;40730;53.068;6.572;2023-07-22T06:23:05;14.50;99.90
54832;DHT22;40730;53.068;6.572;2023-07-22T06:25:31;14.60;99.90
54832;DHT22;40730;53.068;6.572;2023-07-22T06:27:57;14.70;99.90
54832;DHT22;40730;53.068;6.572;2023-07-22T06:30:22;14.80;99.90
54832;DHT22;40730;53.068;6.572;2023-07-22T06:32:48;14.80;99.90
54832;DHT22;40730;53.068;6.572;2023-07-22T06:35:14;14.80;99.90
54832;DHT22;40730;53.068;6.572;2023-07-22T06:37:39;14.80;99.90
54832;DHT22;40730;53.068;6.572;2023-07-22T06:40:06;14.90;99.90
54832;DHT22;40730;53.068;6.572;2023-07-22T06:42:32;14.90;99.90
54832;DHT22;40730;53.068;6.572;2023-07-22T06:44:57;15.00;99.90
54832;DHT22;40730;53.068;6.572;2023-07-22T06:47:23;15.10;99.90
54832;DHT22;40730;53.068;6.572;2023-07-22T06:49:49;15.20;99.90
54832;DHT22;40730;53.068;6.572;2023-07-22T06:52:16;15.20;99.90
54832;DHT22;40730;53.068;6.572;2023-07-22T06:54:41;15.20;99.90
54832;DHT22;40730;53.068;6.572;2023-07-22T06:57:07;15.30;99.90
54832;DHT22;40730;53.068;6.572;2023-07-22T06:59:33;15.40;99.90
54832;DHT22;40730;53.068;6.572;2023-07-22T07:01:58;15.40;99.90
54832;DHT22;40730;53.068;6.572;2023-07-22T07:04:24;15.60;99.90
54832;DHT22;40730;53.068;6.572;2023-07-22T07:06:50;15.80;99.90
54832;DHT22;40730;53.068;6.572;2023-07-22T07:09:16;15.90;99.90
54832;DHT22;40730;53.068;6.572;2023-07-22T07:11:42;15.90;99.90
54832;DHT22;40730;53.068;6.572;2023-07-22T07:14:07;16.10;99.90
54832;DHT22;40730;53.068;6.572;2023-07-22T07:16:33;16.00;99.90
54832;DHT22;40730;53.068;6.572;2023-07-22T07:19:00;16.00;99.90
54832;DHT22;40730;53.068;6.572;2023-07-22T07:21:26;15.90;99.90
54832;DHT22;40730;53.068;6.572;2023-07-22T07:23:53;15.90;99.90
54832;DHT22;40730;53.068;6.572;2023-07-22T07:26:19;15.80;99.90
54832;DHT22;40730;53.068;6.572;2023-07-22T07:28:46;15.80;99.90
54832;DHT22;40730;53.068;6.572;2023-07-22T07:31:12;15.80;99.90
54832;DHT22;40730;53.068;6.572;2023-07-22T07:33:38;15.80;99.90
54832;DHT22;40730;53.068;6.572;2023-07-22T07:36:04;15.80;99.90
54832;DHT22;40730;53.068;6.572;2023-07-22T07:38:30;15.90;99.90
54832;DHT22;40730;53.068;6.572;2023-07-22T07:40:58;16.00;99.90
54832;DHT22;40730;53.068;6.572;2023-07-22T07:43:25;16.10;99.90
54832;DHT22;40730;53.068;6.572;2023-07-22T07:45:51;16.20;99.90
54832;DHT22;40730;53.068;6.572;2023-07-22T07:48:36;16.30;99.90
54832;DHT22;40730;53.068;6.572;2023-07-22T07:51:02;16.50;99.90
54832;DHT22;40730;53.068;6.572;2023-07-22T07:53:28;16.70;99.90
54832;DHT22;40730;53.068;6.572;2023-07-22T07:55:54;16.90;99.90
54832;DHT22;40730;53.068;6.572;2023-07-22T07:58:19;17.20;99.90
54832;DHT22;40730;53.068;6.572;2023-07-22T08:00:45;17.40;99.90
54832;DHT22;40730;53.068;6.572;2023-07-22T08:03:10;17.50;99.90
54832;DHT22;40730;53.068;6.572;2023-07-22T08:05:36;17.60;99.90
54832;DHT22;40730;53.068;6.572;2023-07-22T08:08:01;17.70;99.90
54832;DHT22;40730;53.068;6.572;2023-07-22T08:10:27;17.80;99.90
54832;DHT22;40730;53.068;6.572;2023-07-22T08:12:53;17.80;99.90
54832;DHT22;40730;53.068;6.572;2023-07-22T08:15:18;17.80;99.90
54832;DHT22;40730;53.068;6.572;2023-07-22T08:17:44;17.80;99.90
54832;DHT22;40730;53.068;6.572;2023-07-22T08:20:11;17.80;99.90
54832;DHT22;40730;53.068;6.572;2023-07-22T08:22:36;17.90;99.90
54832;DHT22;40730;53.068;6.572;2023-07-22T08:25:02;17.90;99.90
54832;DHT22;40730;53.068;6.572;2023-07-22T08:27:28;18.10;99.90
54832;DHT22;40730;53.068;6.572;2023-07-22T08:29:54;18.20;99.90
54832;DHT22;40730;53.068;6.572;2023-07-22T08:32:19;18.30;99.90
54832;DHT22;40730;53.068;6.572;2023-07-22T08:34:45;18.40;99.90
54832;DHT22;40730;53.068;6.572;2023-07-22T08:37:11;18.50;99.90
54832;DHT22;40730;53.068;6.572;2023-07-22T08:39:37;18.60;99.90
54832;DHT22;40730;53.068;6.572;2023-07-22T08:42:04;18.70;99.90
54832;DHT22;40730;53.068;6.572;2023-07-22T08:44:32;18.80;99.90
54832;DHT22;40730;53.068;6.572;2023-07-22T08:47:01;18.70;99.90
54832;DHT22;40730;53.068;6.572;2023-07-22T08:49:30;18.50;99.90
54832;DHT22;40730;53.068;6.572;2023-07-22T08:51:56;18.40;99.90
54832;DHT22;40730;53.068;6.572;2023-07-22T08:54:23;18.50;99.90
54832;DHT22;40730;53.068;6.572;2023-07-22T08:56:49;18.30;99.90
54832;DHT22;40730;53.068;6.572;2023-07-22T08:59:17;18.40;99.90
54832;DHT22;40730;53.068;6.572;2023-07-22T09:01:43;18.30;99.90
54832;DHT22;40730;53.068;6.572;2023-07-22T09:04:09;18.20;99.90
54832;DHT22;40730;53.068;6.572;2023-07-22T09:06:35;18.10;99.90
54832;DHT22;40730;53.068;6.572;2023-07-22T09:09:01;18.00;99.90
54832;DHT22;40730;53.068;6.572;2023-07-22T09:11:32;17.80;99.90
54832;DHT22;40730;53.068;6.572;2023-07-22T09:13:59;17.60;99.90
54832;DHT22;40730;53.068;6.572;2023-07-22T09:16:27;17.40;99.90
54832;DHT22;40730;53.068;6.572;2023-07-22T09:18:55;17.20;99.90
54832;DHT22;40730;53.068;6.572;2023-07-22T09:21:22;17.00;99.90
54832;DHT22;40730;53.068;6.572;2023-07-22T09:23:48;16.80;99.90
54832;DHT22;40730;53.068;6.572;2023-07-22T09:26:16;16.70;99.90
54832;DHT22;40730;53.068;6.572;2023-07-22T09:28:58;16.60;99.90
54832;DHT22;40730;53.068;6.572;2023-07-22T09:31:25;16.60;99.90
54832;DHT22;40730;53.068;6.572;2023-07-22T09:33:52;16.50;99.90
54832;DHT22;40730;53.068;6.572;2023-07-22T09:36:20;16.70;99.90
54832;DHT22;40730;53.068;6.572;2023-07-22T09:38:59;16.80;99.90
54832;DHT22;40730;53.068;6.572;2023-07-22T09:41:29;16.90;99.90
54832;DHT22;40730;53.068;6.572;2023-07-22T09:44:02;16.90;99.90
54832;DHT22;40730;53.068;6.572;2023-07-22T09:46:32;17.00;99.90
54832;DHT22;40730;53.068;6.572;2023-07-22T09:49:05;17.00;99.90
54832;DHT22;40730;53.068;6.572;2023-07-22T09:51:38;17.30;99.90
54832;DHT22;40730;53.068;6.572;2023-07-22T09:54:05;17.20;99.90
54832;DHT22;40730;53.068;6.572;2023-07-22T09:56:32;17.20;99.90
54832;DHT22;40730;53.068;6.572;2023-07-22T09:59:04;17.30;99.90
54832;DHT22;40730;53.068;6.572;2023-07-22T10:01:32;17.30;99.90
54832;DHT22;40730;53.068;6.572;2023-07-22T10:03:59;17.30;99.90
54832;DHT22;40730;53.068;6.572;2023-07-22T10:06:29;17.30;99.90
54832;DHT22;40730;53.068;6.572;2023-07-22T10:09:05;17.30;99.90
54832;DHT22;40730;53.068;6.572;2023-07-22T10:11:34;17.30;99.90
54832;DHT22;40730;53.068;6.572;2023-07-22T10:14:04;17.30;99.90
54832;DHT22;40730;53.068;6.572;2023-07-22T10:16:30;17.20;99.90
54832;DHT22;40730;53.068;6.572;2023-07-22T10:18:57;17.10;99.90
54832;DHT22;40730;53.068;6.572;2023-07-22T10:21:28;17.10;99.90
54832;DHT22;40730;53.068;6.572;2023-07-22T10:23:54;17.10;99.90
54832;DHT22;40730;53.068;6.572;2023-07-22T10:26:20;17.10;99.90
54832;DHT22;40730;53.068;6.572;2023-07-22T10:28:47;17.10;99.90
54832;DHT22;40730;53.068;6.572;2023-07-22T10:31:13;17.00;99.90
54832;DHT22;40730;53.068;6.572;2023-07-22T10:33:39;16.90;99.90
54832;DHT22;40730;53.068;6.572;2023-07-22T10:38:33;16.90;99.90
54832;DHT22;40730;53.068;6.572;2023-07-22T10:40:59;16.90;99.90
54832;DHT22;40730;53.068;6.572;2023-07-22T10:45:58;16.80;99.90
54832;DHT22;40730;53.068;6.572;2023-07-22T10:48:34;16.80;99.90
54832;DHT22;40730;53.068;6.572;2023-07-22T10:53:32;16.90;99.90
54832;DHT22;40730;53.068;6.572;2023-07-22T11:11:54;16.50;99.90
54832;DHT22;40730;53.068;6.572;2023-07-22T11:14:27;16.30;99.90
54832;DHT22;40730;53.068;6.572;2023-07-22T11:16:55;16.20;99.90
54832;DHT22;40730;53.068;6.572;2023-07-22T11:19:23;16.10;99.90
54832;DHT22;40730;53.068;6.572;2023-07-22T11:21:53;16.00;99.90
54832;DHT22;40730;53.068;6.572;2023-07-22T11:24:20;15.90;99.90
54832;DHT22;40730;53.068;6.572;2023-07-22T11:26:46;15.90;99.90
54832;DHT22;40730;53.068;6.572;2023-07-22T11:29:13;15.90;99.90
54832;DHT22;40730;53.068;6.572;2023-07-22T11:31:44;16.00;99.90
54832;DHT22;40730;53.068;6.572;2023-07-22T11:34:12;15.90;99.90
54832;DHT22;40730;53.068;6.572;2023-07-22T11:36:38;15.80;99.90
54832;DHT22;40730;53.068;6.572;2023-07-22T11:39:08;15.80;99.90
54832;DHT22;40730;53.068;6.572;2023-07-22T11:41:35;15.80;99.90
54832;DHT22;40730;53.068;6.572;2023-07-22T11:44:03;15.80;99.90
54832;DHT22;40730;53.068;6.572;2023-07-22T11:46:55;15.70;99.90
54832;DHT22;40730;53.068;6.572;2023-07-22T11:49:47;15.70;99.90
54832;DHT22;40730;53.068;6.572;2023-07-22T11:52:30;15.50;99.90
54832;DHT22;40730;53.068;6.572;2023-07-22T11:55:31;15.70;99.90
54832;DHT22;40730;53.068;6.572;2023-07-22T11:58:28;15.60;99.90
54832;DHT22;40730;53.068;6.572;2023-07-22T12:01:12;15.60;99.90
54832;DHT22;40730;53.068;6.572;2023-07-22T12:04:13;15.70;99.90
54832;DHT22;40730;53.068;6.572;2023-07-22T12:07:27;15.60;99.90
54832;DHT22;40730;53.068;6.572;2023-07-22T12:10:23;15.70;99.90
54832;DHT22;40730;53.068;6.572;2023-07-22T12:17:19;15.80;99.90
54832;DHT22;40730;53.068;6.572;2023-07-22T12:20:32;15.90;99.90
54832;DHT22;40730;53.068;6.572;2023-07-22T12:23:33;15.80;99.90
54832;DHT22;40730;53.068;6.572;2023-07-22T12:26:52;15.90;99.90
54832;DHT22;40730;53.068;6.572;2023-07-22T12:29:53;15.90;99.90
54832;DHT22;40730;53.068;6.572;2023-07-22T12:36:59;15.90;99.90
54832;DHT22;40730;53.068;6.572;2023-07-22T12:39:59;15.80;99.90
54832;DHT22;40730;53.068;6.572;2023-07-22T12:43:09;15.40;99.90
54832;DHT22;40730;53.068;6.572;2023-07-22T12:45:40;15.80;99.90
54832;DHT22;40730;53.068;6.572;2023-07-22T12:48:24;15.70;99.90
54832;DHT22;40730;53.068;6.572;2023-07-22T12:51:12;15.80;99.90
54832;DHT22;40730;53.068;6.572;2023-07-22T12:54:04;15.70;99.90
54832;DHT22;40730;53.068;6.572;2023-07-22T12:56:39;15.60;99.90
54832;DHT22;40730;53.068;6.572;2023-07-22T12:59:17;15.80;99.90
54832;DHT22;40730;53.068;6.572;2023-07-22T13:02:23;15.70;99.90
54832;DHT22;40730;53.068;6.572;2023-07-22T13:05:04;15.80;99.90
54832;DHT22;40730;53.068;6.572;2023-07-22T13:07:41;15.80;99.90
54832;DHT22;40730;53.068;6.572;2023-07-22T13:10:22;15.70;99.90
54832;DHT22;40730;53.068;6.572;2023-07-22T13:13:03;15.90;99.90
54832;DHT22;40730;53.068;6.572;2023-07-22T13:16:00;15.70;99.90
54832;DHT22;40730;53.068;6.572;2023-07-22T13:18:34;15.70;99.90
54832;DHT22;40730;53.068;6.572;2023-07-22T13:21:47;15.80;99.90
54832;DHT22;40730;53.068;6.572;2023-07-22T13:24:28;15.50;99.90
54832;DHT22;40730;53.068;6.572;2023-07-22T13:27:33;15.40;99.90
54832;DHT22;40730;53.068;6.572;2023-07-22T13:30:32;15.80;99.90
54832;DHT22;40730;53.068;6.572;2023-07-22T13:33:27;15.40;99.90
54832;DHT22;40730;53.068;6.572;2023-07-22T13:36:38;15.40;99.90
54832;DHT22;40730;53.068;6.572;2023-07-22T13:39:34;15.50;99.90
54832;DHT22;40730;53.068;6.572;2023-07-22T13:42:08;15.60;99.90
54832;DHT22;40730;53.068;6.572;2023-07-22T13:44:53;15.60;99.90
54832;DHT22;40730;53.068;6.572;2023-07-22T13:47:19;16.00;99.90
54832;DHT22;40730;53.068;6.572;2023-07-22T13:50:20;16.00;99.90
54832;DHT22;40730;53.068;6.572;2023-07-22T13:53:28;16.00;99.90
54832;DHT22;40730;53.068;6.572;2023-07-22T13:56:18;16.20;99.90
54832;DHT22;40730;53.068;6.572;2023-07-22T13:59:06;16.50;99.90
54832;DHT22;40730;53.068;6.572;2023-07-22T14:02:12;16.80;99.90
54832;DHT22;40730;53.068;6.572;2023-07-22T14:04:54;16.80;99.90
54832;DHT22;40730;53.068;6.572;2023-07-22T14:08:06;16.80;99.90
54832;DHT22;40730;53.068;6.572;2023-07-22T14:10:56;17.20;99.90
54832;DHT22;40730;53.068;6.572;2023-07-22T14:13:43;17.30;99.90
54832;DHT22;40730;53.068;6.572;2023-07-22T14:16:15;17.30;99.90
54832;DHT22;40730;53.068;6.572;2023-07-22T14:18:40;17.40;99.90
54832;DHT22;40730;53.068;6.572;2023-07-22T14:21:06;17.40;99.90
54832;DHT22;40730;53.068;6.572;2023-07-22T14:23:33;17.50;99.90
54832;DHT22;40730;53.068;6.572;2023-07-22T14:25:58;17.50;99.90
54832;DHT22;40730;53.068;6.572;2023-07-22T14:28:24;17.50;99.90
54832;DHT22;40730;53.068;6.572;2023-07-22T14:30:50;17.50;99.90
54832;DHT22;40730;53.068;6.572;2023-07-22T14:33:15;17.50;99.90
54832;DHT22;40730;53.068;6.572;2023-07-22T14:35:41;17.50;99.90
54832;DHT22;40730;53.068;6.572;2023-07-22T14:38:06;17.50;99.90
54832;DHT22;40730;53.068;6.572;2023-07-22T14:40:32;17.40;99.90
54832;DHT22;40730;53.068;6.572;2023-07-22T14:42:57;17.30;99.90
54832;DHT22;40730;53.068;6.572;2023-07-22T14:45:23;17.30;99.90
54832;DHT22;40730;53.068;6.572;2023-07-22T14:47:49;17.30;99.90
54832;DHT22;40730;53.068;6.572;2023-07-22T14:50:15;17.50;99.90
54832;DHT22;40730;53.068;6.572;2023-07-22T14:52:41;17.50;99.90
54832;DHT22;40730;53.068;6.572;2023-07-22T14:55:07;17.60;99.90
54832;DHT22;40730;53.068;6.572;2023-07-22T14:57:34;17.60;99.90
54832;DHT22;40730;53.068;6.572;2023-07-22T14:59:59;17.60;99.90
54832;DHT22;40730;53.068;6.572;2023-07-22T15:02:25;17.60;99.90
54832;DHT22;40730;53.068;6.572;2023-07-22T15:04:51;17.60;99.90
54832;DHT22;40730;53.068;6.572;2023-07-22T15:07:16;17.60;99.90
54832;DHT22;40730;53.068;6.572;2023-07-22T15:09:42;17.60;99.90
54832;DHT22;40730;53.068;6.572;2023-07-22T15:12:08;17.70;99.90
54832;DHT22;40730;53.068;6.572;2023-07-22T15:14:35;17.50;99.90
54832;DHT22;40730;53.068;6.572;2023-07-22T15:17:01;17.40;99.90
54832;DHT22;40730;53.068;6.572;2023-07-22T15:19:26;17.30;99.90
54832;DHT22;40730;53.068;6.572;2023-07-22T15:21:52;17.30;99.90
54832;DHT22;40730;53.068;6.572;2023-07-22T15:24:18;17.10;99.90
54832;DHT22;40730;53.068;6.572;2023-07-22T15:26:44;17.00;99.90
54832;DHT22;40730;53.068;6.572;2023-07-22T15:29:09;16.90;99.90
54832;DHT22;40730;53.068;6.572;2023-07-22T15:31:35;16.80;99.90
54832;DHT22;40730;53.068;6.572;2023-07-22T15:34:00;16.80;99.90
54832;DHT22;40730;53.068;6.572;2023-07-22T15:36:26;16.70;99.90
54832;DHT22;40730;53.068;6.572;2023-07-22T15:38:52;16.60;99.90
54832;DHT22;40730;53.068;6.572;2023-07-22T15:41:18;16.50;99.90
54832;DHT22;40730;53.068;6.572;2023-07-22T15:43:43;16.50;99.90
54832;DHT22;40730;53.068;6.572;2023-07-22T15:46:09;16.30;99.90
54832;DHT22;40730;53.068;6.572;2023-07-22T15:48:34;16.20;99.90
54832;DHT22;40730;53.068;6.572;2023-07-22T15:51:00;16.10;99.90
54832;DHT22;40730;53.068;6.572;2023-07-22T15:53:26;16.10;99.90
54832;DHT22;40730;53.068;6.572;2023-07-22T15:55:51;16.00;99.90
54832;DHT22;40730;53.068;6.572;2023-07-22T15:58:17;16.00;99.90
54832;DHT22;40730;53.068;6.572;2023-07-22T16:00:43;15.90;99.90
54832;DHT22;40730;53.068;6.572;2023-07-22T16:03:09;15.80;99.90
54832;DHT22;40730;53.068;6.572;2023-07-22T16:05:36;15.80;99.90
54832;DHT22;40730;53.068;6.572;2023-07-22T16:08:02;15.80;99.90
54832;DHT22;40730;53.068;6.572;2023-07-22T16:10:28;15.70;99.90
54832;DHT22;40730;53.068;6.572;2023-07-22T16:12:53;15.70;99.90
54832;DHT22;40730;53.068;6.572;2023-07-22T16:15:19;15.70;99.90
54832;DHT22;40730;53.068;6.572;2023-07-22T16:17:45;15.70;99.90
54832;DHT22;40730;53.068;6.572;2023-07-22T16:20:11;15.80;99.90